Time;durP1;ratioP1;P1;durP2;ratioP2;P2;SDS_P1;SDS_P2;PMS_P1;PMS_P2;Temp;Humidity;BMP_temperature;BMP_pressure;BME280_temperature;BME280_humidity;BME280_pressure;Samples;Min_cycle;Max_cycle;Signal;HPM_P1;HPM_P2
2021/05/14 00:02:22;;;;;;;10.40;9.17;;;;;;;;;;5005812;28;20185;-46
2021/05/14 00:04:47;;;;;;;8.80;7.95;;;;;;;;;;4998744;28;20177;-46
2021/05/14 00:07:12;;;;;;;9.70;8.70;;;;;;;;;;4996722;28;20252;-47
2021/05/14 00:09:38;;;;;;;8.88;7.63;;;;;;;;;;5008738;28;20240;-46
2021/05/14 00:12:03;;;;;;;8.70;7.73;;;;;;;;;;5008414;28;20259;-46
2021/05/14 00:14:28;;;;;;;8.37;7.57;;;;;;;;;;5008932;28;20271;-45
2021/05/14 00:16:53;;;;;;;9.13;7.97;;;;;;;;;;4997501;28;20207;-46
2021/05/14 00:19:18;;;;;;;9.43;8.40;;;;;;;;;;5005181;28;20198;-45
2021/05/14 00:21:44;;;;;;;9.70;8.68;;;;;;;;;;5010227;28;20213;-45
2021/05/14 00:24:09;;;;;;;10.20;8.87;;;;;;;;;;5003842;28;20290;-46
2021/05/14 00:26:34;;;;;;;10.77;9.57;;;;;;;;;;5010485;28;20172;-46
2021/05/14 00:28:59;;;;;;;10.73;9.57;;;;;;;;;;5010307;28;20184;-46
2021/05/14 00:31:24;;;;;;;8.65;7.85;;;;;;;;;;4999224;28;20217;-47
2021/05/14 00:33:50;;;;;;;9.13;8.07;;;;;;;;;;4999036;28;20206;-46
2021/05/14 00:36:15;;;;;;;8.70;8.00;;;;;;;;;;4991192;28;20170;-46
2021/05/14 00:38:40;;;;;;;8.17;7.47;;;;;;;;;;5002429;28;20187;-46
2021/05/14 00:41:05;;;;;;;8.13;7.30;;;;;;;;;;5001840;28;20737;-45
2021/05/14 00:43:31;;;;;;;9.17;8.10;;;;;;;;;;5005913;28;20173;-46
2021/05/14 00:45:56;;;;;;;8.83;7.93;;;;;;;;;;5001060;28;20176;-45
2021/05/14 00:48:21;;;;;;;9.07;8.17;;;;;;;;;;4991674;28;20170;-45
2021/05/14 00:50:47;;;;;;;9.50;8.70;;;;;;;;;;4989356;28;20639;-45
2021/05/14 00:53:12;;;;;;;9.80;8.80;;;;;;;;;;5001704;28;20247;-46
2021/05/14 00:55:37;;;;;;;9.30;8.17;;;;;;;;;;4993061;28;20200;-44
2021/05/14 00:58:02;;;;;;;10.43;8.77;;;;;;;;;;4993365;28;20235;-44
2021/05/14 01:00:27;;;;;;;9.07;8.17;;;;;;;;;;4991037;28;20433;-45
2021/05/14 01:02:53;;;;;;;8.77;7.97;;;;;;;;;;4994000;28;20181;-45
2021/05/14 01:05:19;;;;;;;9.83;8.93;;;;;;;;;;4999836;28;20642;-46
2021/05/14 01:07:45;;;;;;;10.33;9.23;;;;;;;;;;5004216;28;20669;-46
2021/05/14 01:10:10;;;;;;;8.90;8.10;;;;;;;;;;5008409;28;20666;-44
2021/05/14 01:12:35;;;;;;;8.77;7.97;;;;;;;;;;4993213;28;20197;-45
2021/05/14 01:15:00;;;;;;;8.85;7.95;;;;;;;;;;4990108;28;20746;-45
2021/05/14 01:17:25;;;;;;;8.45;7.65;;;;;;;;;;4998481;28;20593;-45
2021/05/14 01:19:51;;;;;;;8.32;7.53;;;;;;;;;;5004028;28;20189;-45
2021/05/14 01:22:18;;;;;;;8.20;7.30;;;;;;;;;;4996225;28;20185;-45
2021/05/14 01:24:43;;;;;;;8.77;7.97;;;;;;;;;;5001215;28;20180;-45
2021/05/14 01:27:08;;;;;;;7.95;7.35;;;;;;;;;;5007826;28;20683;-45
2021/05/14 01:29:34;;;;;;;8.27;7.57;;;;;;;;;;5009170;28;20222;-45
2021/05/14 01:31:59;;;;;;;7.55;6.75;;;;;;;;;;4994337;28;20182;-49
2021/05/14 01:34:24;;;;;;;7.80;7.20;;;;;;;;;;5003724;28;20224;-45
2021/05/14 01:36:49;;;;;;;8.80;7.27;;;;;;;;;;4998802;28;20525;-47
2021/05/14 01:39:17;;;;;;;7.57;6.87;;;;;;;;;;5003002;28;20173;-46
2021/05/14 01:41:43;;;;;;;7.57;6.77;;;;;;;;;;4988575;28;20181;-45
2021/05/14 01:44:08;;;;;;;8.67;7.87;;;;;;;;;;5005118;28;20674;-45
2021/05/14 01:46:34;;;;;;;7.57;6.77;;;;;;;;;;4992380;28;20210;-46
2021/05/14 01:48:59;;;;;;;7.60;6.90;;;;;;;;;;4989644;28;20545;-44
2021/05/14 01:51:24;;;;;;;8.60;7.80;;;;;;;;;;5005679;28;20181;-46
2021/05/14 01:53:50;;;;;;;7.80;7.00;;;;;;;;;;5006482;28;20173;-45
2021/05/14 01:56:15;;;;;;;7.27;6.57;;;;;;;;;;4997020;28;20180;-45
2021/05/14 01:58:40;;;;;;;7.60;6.90;;;;;;;;;;5005598;28;20218;-45
2021/05/14 02:01:06;;;;;;;7.70;6.90;;;;;;;;;;5008072;28;20218;-45
2021/05/14 02:03:31;;;;;;;7.53;6.83;;;;;;;;;;4997313;28;20648;-46
2021/05/14 02:05:56;;;;;;;8.03;7.23;;;;;;;;;;4993338;28;20189;-47
2021/05/14 02:08:21;;;;;;;13.50;11.53;;;;;;;;;;5005366;28;20191;-46
2021/05/14 02:10:46;;;;;;;12.37;10.73;;;;;;;;;;5001861;28;20512;-44
2021/05/14 02:13:11;;;;;;;11.77;10.10;;;;;;;;;;5007105;28;20185;-45
2021/05/14 02:15:37;;;;;;;16.23;14.65;;;;;;;;;;4993488;28;20210;-46
2021/05/14 02:18:02;;;;;;;19.03;15.63;;;;;;;;;;4993085;28;20182;-46
2021/05/14 02:20:27;;;;;;;15.50;12.63;;;;;;;;;;5005246;28;20191;-45
2021/05/14 02:22:52;;;;;;;9.63;8.63;;;;;;;;;;5001222;28;20180;-46
2021/05/14 02:25:17;;;;;;;9.93;8.88;;;;;;;;;;4991427;28;20178;-45
2021/05/14 02:27:43;;;;;;;9.90;7.67;;;;;;;;;;5004816;28;20547;-45
2021/05/14 02:30:08;;;;;;;8.60;7.13;;;;;;;;;;4991001;28;20235;-45
2021/05/14 02:32:33;;;;;;;8.23;7.43;;;;;;;;;;5006556;28;20349;-45
2021/05/14 02:34:59;;;;;;;9.07;7.30;;;;;;;;;;4989199;28;20708;-45
2021/05/14 02:37:24;;;;;;;7.37;6.67;;;;;;;;;;4991080;28;20266;-45
2021/05/14 02:39:49;;;;;;;6.50;5.90;;;;;;;;;;4993528;28;20205;-46
2021/05/14 02:42:15;;;;;;;6.88;6.35;;;;;;;;;;4992892;28;20177;-46
2021/05/14 02:44:40;;;;;;;7.97;7.23;;;;;;;;;;4999466;28;20538;-45
2021/05/14 02:47:05;;;;;;;9.53;8.57;;;;;;;;;;4991829;28;20177;-45
2021/05/14 02:49:30;;;;;;;7.40;6.70;;;;;;;;;;4988627;28;20638;-45
2021/05/14 02:51:55;;;;;;;6.77;6.17;;;;;;;;;;5003567;28;20188;-46
2021/05/14 02:54:20;;;;;;;6.50;6.00;;;;;;;;;;4991881;28;20264;-46
2021/05/14 02:56:46;;;;;;;7.20;6.60;;;;;;;;;;4988442;28;20184;-45
2021/05/14 02:59:11;;;;;;;8.20;7.50;;;;;;;;;;4995401;28;20647;-46
2021/05/14 03:01:36;;;;;;;9.90;7.90;;;;;;;;;;4996086;28;20181;-45
2021/05/14 03:04:04;;;;;;;8.67;7.83;;;;;;;;;;4989197;28;20834;-44
2021/05/14 03:06:29;;;;;;;8.50;7.70;;;;;;;;;;5004177;28;20255;-44
2021/05/14 03:08:54;;;;;;;9.50;7.72;;;;;;;;;;5007800;28;20734;-44
2021/05/14 03:11:19;;;;;;;9.80;8.80;;;;;;;;;;4994335;28;20257;-46
2021/05/14 03:13:44;;;;;;;13.20;9.27;;;;;;;;;;4994519;28;20180;-44
2021/05/14 03:16:09;;;;;;;9.73;8.82;;;;;;;;;;4996368;28;20176;-45
2021/05/14 03:18:34;;;;;;;9.00;8.10;;;;;;;;;;5003139;28;20712;-45
2021/05/14 03:21:00;;;;;;;9.50;8.50;;;;;;;;;;5002309;28;20176;-46
2021/05/14 03:23:25;;;;;;;9.83;8.83;;;;;;;;;;5002354;28;20178;-45
2021/05/14 03:25:50;;;;;;;10.60;9.63;;;;;;;;;;4992035;28;20180;-45
2021/05/14 03:28:15;;;;;;;11.88;10.88;;;;;;;;;;4994724;28;20799;-45
2021/05/14 03:30:41;;;;;;;10.37;9.40;;;;;;;;;;5003469;28;20172;-45
2021/05/14 03:33:06;;;;;;;10.10;9.20;;;;;;;;;;4988084;28;20173;-45
2021/05/14 03:35:31;;;;;;;9.73;8.90;;;;;;;;;;4992883;28;20207;-45
2021/05/14 03:37:56;;;;;;;10.80;9.67;;;;;;;;;;5008050;28;20231;-45
2021/05/14 03:40:43;;;;;;;10.85;9.85;;;;;;;;;;5002080;28;20549;-45
2021/05/14 03:43:07;;;;;;;10.30;9.40;;;;;;;;;;4996024;28;20710;-47
2021/05/14 03:45:32;;;;;;;10.77;9.67;;;;;;;;;;5004281;28;20601;-46
2021/05/14 03:47:58;;;;;;;10.80;9.90;;;;;;;;;;4988476;28;20657;-44
2021/05/14 03:50:27;;;;;;;12.73;11.53;;;;;;;;;;4999300;28;20188;-45
2021/05/14 03:52:53;;;;;;;10.83;9.83;;;;;;;;;;4988302;28;20189;-44
2021/05/14 03:55:19;;;;;;;11.07;10.13;;;;;;;;;;4992950;28;20657;-44
2021/05/14 03:57:44;;;;;;;10.10;9.07;;;;;;;;;;4995783;28;20185;-44
2021/05/14 04:00:10;;;;;;;11.45;10.45;;;;;;;;;;4992688;28;20656;-44
2021/05/14 04:02:35;;;;;;;12.47;11.17;;;;;;;;;;5004756;28;20265;-44
2021/05/14 04:05:00;;;;;;;11.48;10.38;;;;;;;;;;4997384;28;20184;-45
2021/05/14 04:07:26;;;;;;;11.30;10.30;;;;;;;;;;5006420;28;20318;-45
2021/05/14 04:10:02;;;;;;;11.03;10.00;;;;;;;;;;5002898;28;20220;-45
2021/05/14 04:15:08;;;;;;;12.20;11.10;;;;;;;;;;5002063;28;20675;-45
2021/05/14 04:17:33;;;;;;;13.23;11.97;;;;;;;;;;4990976;28;20589;-44
2021/05/14 04:19:59;;;;;;;13.27;11.98;;;;;;;;;;4992183;28;20591;-44
2021/05/14 04:22:25;;;;;;;13.90;12.10;;;;;;;;;;4999671;28;20185;-45
2021/05/14 04:24:50;;;;;;;13.40;11.57;;;;;;;;;;5010258;28;20213;-45
2021/05/14 04:27:15;;;;;;;13.80;12.35;;;;;;;;;;5004405;28;20174;-45
2021/05/14 04:29:41;;;;;;;13.37;12.17;;;;;;;;;;4996328;28;20184;-45
2021/05/14 04:32:06;;;;;;;18.37;16.30;;;;;;;;;;5008007;28;20188;-45
2021/05/14 04:34:31;;;;;;;13.90;12.40;;;;;;;;;;4999863;28;20206;-45
2021/05/14 04:36:56;;;;;;;14.93;13.52;;;;;;;;;;4989367;28;20180;-45
2021/05/14 04:39:22;;;;;;;13.30;11.80;;;;;;;;;;4996450;28;20189;-45
2021/05/14 04:41:47;;;;;;;14.00;12.60;;;;;;;;;;5008287;28;20222;-47
2021/05/14 04:44:13;;;;;;;14.88;13.38;;;;;;;;;;4994182;28;20679;-44
2021/05/14 04:46:39;;;;;;;15.57;14.07;;;;;;;;;;4991972;28;20180;-48
2021/05/14 04:49:04;;;;;;;15.68;14.07;;;;;;;;;;4993920;28;20666;-45
2021/05/14 04:51:29;;;;;;;16.70;14.40;;;;;;;;;;5000392;28;20188;-46
2021/05/14 04:53:55;;;;;;;14.50;13.10;;;;;;;;;;5004276;28;20270;-47
2021/05/14 04:56:20;;;;;;;15.50;14.00;;;;;;;;;;4996650;28;20404;-46
2021/05/14 04:58:45;;;;;;;15.37;13.80;;;;;;;;;;5005566;28;20190;-46
2021/05/14 05:01:13;;;;;;;15.60;14.10;;;;;;;;;;5010207;28;20235;-47
2021/05/14 05:03:38;;;;;;;15.40;13.90;;;;;;;;;;5008324;28;20211;-46
2021/05/14 05:06:04;;;;;;;14.17;12.73;;;;;;;;;;5009605;28;21143;-46
2021/05/14 05:08:29;;;;;;;16.90;15.20;;;;;;;;;;5010079;28;20183;-46
2021/05/14 05:10:54;;;;;;;14.32;12.98;;;;;;;;;;5023046;28;20274;-46
2021/05/14 05:13:19;;;;;;;14.53;13.03;;;;;;;;;;5004486;28;20257;-46
2021/05/14 05:15:44;;;;;;;14.70;13.20;;;;;;;;;;4990526;28;20213;-46
2021/05/14 05:18:09;;;;;;;15.00;13.60;;;;;;;;;;4990563;28;20266;-45
2021/05/14 05:20:35;;;;;;;16.10;14.53;;;;;;;;;;5002348;28;20826;-45
2021/05/14 05:23:00;;;;;;;15.80;14.20;;;;;;;;;;5000366;28;20602;-45
2021/05/14 05:25:25;;;;;;;16.40;14.70;;;;;;;;;;5008850;28;20253;-45
2021/05/14 05:27:50;;;;;;;16.23;13.90;;;;;;;;;;4993655;28;20670;-46
2021/05/14 05:30:16;;;;;;;16.77;15.03;;;;;;;;;;4993803;28;20180;-45
2021/05/14 05:32:42;;;;;;;18.50;15.83;;;;;;;;;;4996545;28;20177;-44
2021/05/14 05:35:07;;;;;;;16.07;14.40;;;;;;;;;;4996155;28;21485;-44
2021/05/14 05:37:32;;;;;;;16.30;14.60;;;;;;;;;;4997342;28;20236;-45
2021/05/14 05:39:57;;;;;;;16.63;15.10;;;;;;;;;;5002710;28;20669;-48
2021/05/14 05:42:22;;;;;;;17.38;15.52;;;;;;;;;;5003244;28;20170;-45
2021/05/14 05:44:48;;;;;;;16.73;15.20;;;;;;;;;;5000351;28;20196;-45
2021/05/14 05:47:13;;;;;;;17.40;15.80;;;;;;;;;;5001034;28;20202;-45
2021/05/14 05:49:38;;;;;;;15.83;14.33;;;;;;;;;;4996678;28;20565;-45
2021/05/14 05:52:04;;;;;;;16.73;14.93;;;;;;;;;;4996902;28;20554;-45
2021/05/14 05:54:29;;;;;;;17.10;15.40;;;;;;;;;;4986969;28;20206;-45
2021/05/14 05:56:57;;;;;;;18.50;16.60;;;;;;;;;;5003050;28;20673;-46
2021/05/14 05:59:23;;;;;;;16.13;14.57;;;;;;;;;;5002682;28;20174;-46
2021/05/14 06:01:49;;;;;;;16.23;14.67;;;;;;;;;;5000726;28;20589;-46
2021/05/14 06:04:14;;;;;;;15.83;14.43;;;;;;;;;;5019956;28;20310;-45
2021/05/14 06:06:39;;;;;;;16.90;15.30;;;;;;;;;;5009982;28;21252;-46
2021/05/14 06:09:04;;;;;;;16.50;15.00;;;;;;;;;;5003629;28;20174;-47
2021/05/14 06:11:30;;;;;;;15.37;13.97;;;;;;;;;;5002606;28;20229;-46
2021/05/14 06:13:55;;;;;;;16.83;15.33;;;;;;;;;;5005976;28;20374;-47
2021/05/14 06:16:20;;;;;;;16.17;14.67;;;;;;;;;;4997926;28;20213;-46
2021/05/14 06:18:50;;;;;;;15.60;14.10;;;;;;;;;;4995939;28;20204;-46
2021/05/14 06:21:15;;;;;;;18.43;15.03;;;;;;;;;;5005817;28;20200;-46
2021/05/14 06:23:41;;;;;;;15.67;14.27;;;;;;;;;;5005302;28;20609;-46
2021/05/14 06:26:06;;;;;;;16.27;14.77;;;;;;;;;;5003681;28;20191;-47
2021/05/14 06:28:31;;;;;;;16.27;14.77;;;;;;;;;;4989380;28;20549;-46
2021/05/14 06:30:56;;;;;;;16.77;15.17;;;;;;;;;;5005690;28;20181;-46
2021/05/14 06:33:21;;;;;;;16.70;15.05;;;;;;;;;;5004719;28;20181;-47
2021/05/14 06:35:48;;;;;;;16.40;14.90;;;;;;;;;;5004716;28;20212;-46
2021/05/14 06:38:14;;;;;;;15.43;13.93;;;;;;;;;;5005488;28;20243;-47
2021/05/14 06:40:39;;;;;;;16.60;15.10;;;;;;;;;;5006476;28;20678;-47
2021/05/14 06:43:04;;;;;;;16.27;14.70;;;;;;;;;;5002905;28;20216;-46
2021/05/14 06:45:30;;;;;;;15.80;14.33;;;;;;;;;;5005055;28;20780;-46
2021/05/14 06:48:05;;;;;;;17.70;16.10;;;;;;;;;;5006206;28;20189;-46
2021/05/14 06:50:31;;;;;;;16.50;15.07;;;;;;;;;;5007858;28;20173;-46
2021/05/14 06:52:56;;;;;;;16.90;15.40;;;;;;;;;;5007526;28;20599;-46
2021/05/14 06:55:21;;;;;;;18.65;16.85;;;;;;;;;;5006974;28;20666;-47
2021/05/14 06:57:46;;;;;;;16.83;15.20;;;;;;;;;;5004861;28;20209;-45
2021/05/14 07:00:12;;;;;;;16.70;15.27;;;;;;;;;;5005790;28;20260;-46
2021/05/14 07:02:37;;;;;;;16.37;14.90;;;;;;;;;;5007101;28;20173;-46
2021/05/14 07:05:02;;;;;;;16.13;14.57;;;;;;;;;;5005309;28;20176;-46
2021/05/14 07:07:30;;;;;;;17.90;16.30;;;;;;;;;;5007290;28;20181;-46
2021/05/14 07:09:55;;;;;;;18.13;16.43;;;;;;;;;;5007640;28;20231;-46
2021/05/14 07:12:20;;;;;;;18.30;16.33;;;;;;;;;;5007709;28;20606;-46
2021/05/14 07:14:45;;;;;;;17.50;15.90;;;;;;;;;;5007308;28;20203;-46
2021/05/14 07:17:10;;;;;;;20.23;18.10;;;;;;;;;;5007640;28;20179;-45
2021/05/14 07:19:35;;;;;;;19.98;18.02;;;;;;;;;;5007701;28;20180;-46
2021/05/14 07:22:00;;;;;;;19.17;17.48;;;;;;;;;;5007717;28;20173;-46
2021/05/14 07:24:26;;;;;;;20.67;18.85;;;;;;;;;;5007463;28;20279;-45
2021/05/14 07:26:51;;;;;;;20.27;18.30;;;;;;;;;;5007600;28;20194;-46
2021/05/14 07:29:16;;;;;;;21.42;19.42;;;;;;;;;;5007477;28;20507;-47
2021/05/14 07:31:41;;;;;;;20.98;19.08;;;;;;;;;;5007452;28;20177;-45
2021/05/14 07:34:06;;;;;;;23.73;21.38;;;;;;;;;;5007861;28;20212;-47
2021/05/14 07:36:31;;;;;;;22.27;20.17;;;;;;;;;;5007131;28;20903;-47
2021/05/14 07:38:57;;;;;;;22.60;20.50;;;;;;;;;;5007345;28;20184;-46
2021/05/14 07:41:22;;;;;;;21.37;19.40;;;;;;;;;;5006107;28;20184;-45
2021/05/14 07:43:47;;;;;;;22.20;20.10;;;;;;;;;;4991427;28;20637;-47
2021/05/14 07:46:12;;;;;;;22.83;20.37;;;;;;;;;;5007560;28;20176;-46
2021/05/14 07:48:37;;;;;;;22.57;20.47;;;;;;;;;;4994964;28;20715;-46
2021/05/14 07:51:03;;;;;;;25.80;23.40;;;;;;;;;;4991558;28;20590;-46
2021/05/14 07:53:28;;;;;;;21.93;19.97;;;;;;;;;;4990989;28;20221;-48
2021/05/14 07:55:53;;;;;;;23.73;21.30;;;;;;;;;;4991358;28;20676;-47
2021/05/14 07:58:20;;;;;;;23.87;21.40;;;;;;;;;;4991000;28;20179;-46
2021/05/14 08:00:48;;;;;;;22.07;19.90;;;;;;;;;;5001976;28;20169;-46
2021/05/14 08:03:13;;;;;;;16.27;14.77;;;;;;;;;;4997390;28;20717;-45
2021/05/14 08:05:38;;;;;;;11.52;10.52;;;;;;;;;;4990834;28;20672;-49
2021/05/14 08:08:09;;;;;;;10.53;9.53;;;;;;;;;;4990808;28;20656;-46
2021/05/14 08:10:34;;;;;;;10.00;9.20;;;;;;;;;;4990766;28;20245;-46
2021/05/14 08:13:00;;;;;;;8.63;7.93;;;;;;;;;;4991278;28;20649;-45
2021/05/14 08:15:25;;;;;;;7.30;6.77;;;;;;;;;;4990897;28;20214;-46
2021/05/14 08:17:51;;;;;;;8.13;7.47;;;;;;;;;;4991074;28;20174;-47
2021/05/14 08:20:16;;;;;;;8.60;7.80;;;;;;;;;;4990611;28;20277;-47
2021/05/14 08:22:41;;;;;;;7.80;7.10;;;;;;;;;;5008486;28;20200;-46
2021/05/14 08:25:07;;;;;;;8.20;7.50;;;;;;;;;;5009075;28;20184;-46
2021/05/14 08:27:32;;;;;;;8.60;7.90;;;;;;;;;;5010099;28;20181;-46
2021/05/14 08:29:57;;;;;;;9.68;8.88;;;;;;;;;;5010127;28;20179;-46
2021/05/14 08:32:22;;;;;;;8.77;8.07;;;;;;;;;;5010479;28;20316;-46
2021/05/14 08:34:47;;;;;;;8.77;7.97;;;;;;;;;;5009576;28;20910;-47
2021/05/14 08:37:13;;;;;;;9.70;8.90;;;;;;;;;;5010047;28;20272;-46
2021/05/14 08:39:38;;;;;;;11.23;10.25;;;;;;;;;;5010089;28;20182;-45
2021/05/14 08:42:03;;;;;;;10.40;9.52;;;;;;;;;;5009992;28;20522;-46
2021/05/14 08:44:28;;;;;;;8.53;7.90;;;;;;;;;;5009386;28;20258;-45
2021/05/14 08:46:54;;;;;;;8.40;7.70;;;;;;;;;;4990924;28;20187;-45
2021/05/14 08:49:19;;;;;;;7.63;6.93;;;;;;;;;;4990320;28;20178;-46
2021/05/14 08:51:44;;;;;;;8.07;7.37;;;;;;;;;;4989825;28;20265;-45
2021/05/14 08:54:10;;;;;;;8.10;7.50;;;;;;;;;;4990389;28;20205;-45
2021/05/14 08:56:35;;;;;;;8.03;7.43;;;;;;;;;;4989767;28;20638;-45
2021/05/14 08:59:00;;;;;;;8.20;7.60;;;;;;;;;;4994706;28;20181;-46
2021/05/14 09:01:25;;;;;;;8.00;7.40;;;;;;;;;;4996531;28;20178;-45
2021/05/14 09:03:54;;;;;;;7.77;7.17;;;;;;;;;;4990646;28;20170;-46
2021/05/14 09:06:39;;;;;;;7.07;6.47;;;;;;;;;;5009502;28;20183;-45
2021/05/14 09:09:05;;;;;;;7.67;7.00;;;;;;;;;;5010142;28;20616;-46
2021/05/14 09:11:34;;;;;;;7.60;7.00;;;;;;;;;;5009614;28;20682;-45
2021/05/14 09:13:59;;;;;;;7.23;6.73;;;;;;;;;;4999912;28;20619;-46
2021/05/14 09:16:37;;;;;;;7.40;6.80;;;;;;;;;;4988116;28;20624;-44
2021/05/14 09:19:02;;;;;;;8.60;7.90;;;;;;;;;;4989459;28;20884;-45
2021/05/14 09:21:28;;;;;;;8.03;7.23;;;;;;;;;;4989552;28;20599;-45
2021/05/14 09:23:54;;;;;;;9.50;8.73;;;;;;;;;;4989595;28;20177;-45
2021/05/14 09:26:20;;;;;;;7.50;7.00;;;;;;;;;;4989042;28;20588;-46
2021/05/14 09:28:50;;;;;;;8.70;8.10;;;;;;;;;;4989343;28;20666;-46
2021/05/14 09:31:17;;;;;;;7.87;7.33;;;;;;;;;;4989323;28;20222;-46
2021/05/14 09:33:43;;;;;;;8.57;7.90;;;;;;;;;;4989337;28;20664;-45
2021/05/14 09:36:09;;;;;;;8.23;7.63;;;;;;;;;;5004341;28;20632;-46
2021/05/14 09:38:38;;;;;;;8.27;7.67;;;;;;;;;;4989097;28;21150;-46
2021/05/14 09:41:03;;;;;;;8.30;7.70;;;;;;;;;;4989001;28;20576;-45
2021/05/14 09:43:28;;;;;;;7.93;7.32;;;;;;;;;;4988381;28;20587;-46
2021/05/14 09:45:53;;;;;;;8.10;7.50;;;;;;;;;;4996587;28;20204;-46
2021/05/14 09:48:21;;;;;;;6.82;6.30;;;;;;;;;;5007041;28;20288;-46
2021/05/14 09:50:47;;;;;;;6.90;6.43;;;;;;;;;;5008415;28;20187;-46
2021/05/14 09:53:22;;;;;;;6.90;6.40;;;;;;;;;;5008795;28;20590;-46
2021/05/14 09:55:50;;;;;;;4.90;4.50;;;;;;;;;;5008061;28;20207;-47
2021/05/14 09:58:19;;;;;;;3.93;3.70;;;;;;;;;;5008511;28;20598;-46
2021/05/14 10:00:45;;;;;;;4.50;3.97;;;;;;;;;;5008251;28;20579;-46
2021/05/14 10:03:13;;;;;;;4.70;4.40;;;;;;;;;;5008108;28;20695;-45
2021/05/14 10:05:38;;;;;;;4.43;4.10;;;;;;;;;;5006572;28;20181;-45
2021/05/14 10:08:04;;;;;;;5.10;4.70;;;;;;;;;;5008544;28;20604;-46
2021/05/14 10:10:31;;;;;;;4.17;3.97;;;;;;;;;;5007511;28;20626;-46
2021/05/14 10:12:56;;;;;;;3.70;3.40;;;;;;;;;;5008724;28;20586;-46
2021/05/14 10:15:21;;;;;;;3.00;2.80;;;;;;;;;;5008200;28;20637;-45
2021/05/14 10:17:47;;;;;;;3.70;3.40;;;;;;;;;;5008029;28;20170;-46
2021/05/14 10:20:14;;;;;;;3.27;2.97;;;;;;;;;;5008866;28;20207;-46
2021/05/14 10:22:39;;;;;;;3.73;3.13;;;;;;;;;;5008440;28;20576;-46
2021/05/14 10:25:06;;;;;;;2.90;2.70;;;;;;;;;;5008332;28;20603;-46
2021/05/14 10:27:42;;;;;;;3.43;3.20;;;;;;;;;;5007850;28;20261;-46
2021/05/14 10:30:08;;;;;;;3.43;3.20;;;;;;;;;;5008347;28;20704;-46
2021/05/14 10:32:39;;;;;;;2.87;2.57;;;;;;;;;;5008350;28;20642;-47
2021/05/14 10:35:04;;;;;;;2.57;2.37;;;;;;;;;;5008103;28;20680;-46
2021/05/14 10:37:59;;;;;;;2.70;2.50;;;;;;;;;;5000222;28;20652;-46
2021/05/14 10:40:27;;;;;;;2.47;2.37;;;;;;;;;;5004624;28;20228;-46
2021/05/14 10:42:52;;;;;;;2.63;2.43;;;;;;;;;;5007601;28;20581;-46
2021/05/14 10:45:34;;;;;;;2.97;2.30;;;;;;;;;;5007508;28;20924;-46
2021/05/14 10:47:59;;;;;;;2.90;2.70;;;;;;;;;;5007553;28;20176;-46
2021/05/14 10:50:32;;;;;;;2.60;2.50;;;;;;;;;;5007934;28;20570;-47
2021/05/14 10:53:15;;;;;;;2.90;2.70;;;;;;;;;;5007750;28;20233;-47
2021/05/14 10:55:41;;;;;;;3.07;2.87;;;;;;;;;;5007534;28;20635;-46
2021/05/14 10:58:06;;;;;;;3.50;3.22;;;;;;;;;;5007541;28;21000;-46
2021/05/14 11:00:33;;;;;;;3.67;3.22;;;;;;;;;;5007552;28;20162;-46
2021/05/14 11:03:11;;;;;;;4.03;3.20;;;;;;;;;;5007457;28;20699;-46
2021/05/14 11:05:38;;;;;;;4.10;3.80;;;;;;;;;;5007353;28;20625;-46
2021/05/14 11:08:04;;;;;;;4.07;3.77;;;;;;;;;;5007216;28;21431;-46
2021/05/14 11:10:30;;;;;;;4.43;4.10;;;;;;;;;;5007317;28;20761;-46
2021/05/14 11:12:55;;;;;;;4.60;3.70;;;;;;;;;;5007825;28;20189;-47
2021/05/14 11:15:20;;;;;;;4.33;4.13;;;;;;;;;;5007311;28;21196;-46
2021/05/14 11:18:04;;;;;;;4.30;4.00;;;;;;;;;;5007551;28;20652;-46
2021/05/14 11:20:39;;;;;;;5.73;4.50;;;;;;;;;;5007686;28;20185;-46
2021/05/14 11:23:23;;;;;;;3.83;3.50;;;;;;;;;;5010227;28;21220;-45
2021/05/14 11:25:48;;;;;;;4.97;4.57;;;;;;;;;;5010966;28;20590;-45
2021/05/14 11:28:13;;;;;;;4.17;3.87;;;;;;;;;;5011695;28;20592;-45
2021/05/14 11:30:38;;;;;;;4.57;4.18;;;;;;;;;;5011814;28;20204;-45
2021/05/14 11:33:03;;;;;;;4.27;3.97;;;;;;;;;;5011536;28;20569;-45
2021/05/14 11:35:30;;;;;;;4.20;3.90;;;;;;;;;;5011548;28;20701;-45
2021/05/14 11:37:56;;;;;;;4.07;3.77;;;;;;;;;;5011089;28;20188;-45
2021/05/14 11:40:28;;;;;;;5.33;5.03;;;;;;;;;;5011364;28;20578;-46
2021/05/14 11:42:55;;;;;;;4.80;4.40;;;;;;;;;;5011290;28;21010;-45
2021/05/14 11:45:25;;;;;;;4.47;4.10;;;;;;;;;;5011167;28;21200;-45
2021/05/14 11:47:54;;;;;;;4.63;4.27;;;;;;;;;;5010877;28;20624;-44
2021/05/14 11:50:23;;;;;;;5.53;5.13;;;;;;;;;;5011236;28;20896;-45
2021/05/14 11:52:49;;;;;;;6.30;5.80;;;;;;;;;;5010626;28;20615;-45
2021/05/14 11:55:14;;;;;;;5.90;5.50;;;;;;;;;;5011245;28;20663;-44
2021/05/14 11:57:41;;;;;;;6.70;6.20;;;;;;;;;;5011157;28;20744;-45
2021/05/14 12:00:08;;;;;;;6.03;5.53;;;;;;;;;;5010988;28;20582;-45
2021/05/14 12:02:39;;;;;;;7.30;6.80;;;;;;;;;;5010941;28;20628;-45
2021/05/14 12:05:05;;;;;;;7.60;7.10;;;;;;;;;;5010777;28;20586;-46
2021/05/14 12:07:31;;;;;;;6.40;6.00;;;;;;;;;;5009358;28;21141;-46
2021/05/14 12:09:59;;;;;;;6.43;6.03;;;;;;;;;;5010771;28;20641;-47
2021/05/14 12:12:25;;;;;;;9.00;8.40;;;;;;;;;;5011308;28;20176;-45
2021/05/14 12:14:50;;;;;;;7.77;6.20;;;;;;;;;;5010596;28;21216;-46
2021/05/14 12:17:16;;;;;;;8.10;7.50;;;;;;;;;;5010624;28;20187;-46
2021/05/14 12:19:47;;;;;;;8.30;7.70;;;;;;;;;;5011158;28;20238;-46
2021/05/14 12:22:13;;;;;;;8.40;7.80;;;;;;;;;;5010754;28;20267;-47
2021/05/14 12:24:38;;;;;;;7.87;7.37;;;;;;;;;;5010388;28;21127;-46
2021/05/14 12:27:06;;;;;;;7.03;6.63;;;;;;;;;;5010516;28;20663;-46
2021/05/14 12:29:31;;;;;;;6.77;6.37;;;;;;;;;;5010533;28;20207;-46
2021/05/14 12:31:56;;;;;;;8.20;7.60;;;;;;;;;;5010725;28;20675;-47
2021/05/14 12:34:22;;;;;;;7.53;6.93;;;;;;;;;;5008590;28;20208;-46
2021/05/14 12:36:51;;;;;;;8.00;7.50;;;;;;;;;;5009679;28;20267;-47
2021/05/14 12:39:17;;;;;;;7.10;6.70;;;;;;;;;;5002348;28;21170;-46
2021/05/14 12:41:42;;;;;;;8.67;8.03;;;;;;;;;;5010561;28;20573;-46
2021/05/14 12:44:15;;;;;;;7.80;7.20;;;;;;;;;;5009742;28;20611;-47
2021/05/14 12:46:56;;;;;;;6.93;6.43;;;;;;;;;;5009875;28;20173;-46
2021/05/14 12:49:21;;;;;;;6.80;6.30;;;;;;;;;;5009738;28;20591;-46
2021/05/14 12:51:57;;;;;;;6.40;5.80;;;;;;;;;;5009742;28;21114;-45
2021/05/14 12:54:22;;;;;;;6.60;6.03;;;;;;;;;;5009546;28;20193;-46
2021/05/14 12:56:47;;;;;;;7.03;6.33;;;;;;;;;;5009196;28;20596;-45
2021/05/14 12:59:17;;;;;;;6.03;5.43;;;;;;;;;;5010034;28;20171;-44
2021/05/14 13:01:46;;;;;;;7.17;6.60;;;;;;;;;;5009880;28;20633;-45
2021/05/14 13:04:11;;;;;;;5.90;5.50;;;;;;;;;;5009431;28;20579;-44
2021/05/14 13:06:36;;;;;;;7.10;6.50;;;;;;;;;;5009082;28;20583;-45
2021/05/14 13:09:09;;;;;;;7.78;6.32;;;;;;;;;;5009593;28;20213;-44
2021/05/14 13:11:37;;;;;;;7.00;6.47;;;;;;;;;;5009338;28;20255;-44
2021/05/14 13:14:03;;;;;;;6.77;6.17;;;;;;;;;;5006468;28;20582;-45
2021/05/14 13:16:28;;;;;;;8.30;7.70;;;;;;;;;;5003324;28;20598;-44
2021/05/14 13:18:55;;;;;;;7.97;7.30;;;;;;;;;;5009513;28;20682;-44
2021/05/14 13:21:21;;;;;;;6.63;6.23;;;;;;;;;;5009370;28;20228;-44
2021/05/14 13:23:46;;;;;;;7.67;6.90;;;;;;;;;;5009126;28;20607;-45
2021/05/14 13:26:14;;;;;;;7.22;6.63;;;;;;;;;;5009187;28;21157;-46
2021/05/14 13:28:39;;;;;;;7.67;7.10;;;;;;;;;;5009068;28;20179;-45
2021/05/14 13:31:04;;;;;;;7.67;7.07;;;;;;;;;;5008687;28;20581;-44
2021/05/14 13:33:30;;;;;;;6.90;6.40;;;;;;;;;;5009276;28;20178;-45
2021/05/14 13:35:55;;;;;;;8.00;7.50;;;;;;;;;;5008761;28;20230;-46
2021/05/14 13:38:20;;;;;;;8.07;7.38;;;;;;;;;;5008788;28;20999;-45
2021/05/14 13:40:45;;;;;;;8.80;8.18;;;;;;;;;;5009096;28;20177;-46
2021/05/14 13:43:10;;;;;;;8.67;7.87;;;;;;;;;;5008852;28;20185;-45
2021/05/14 13:45:36;;;;;;;7.15;6.75;;;;;;;;;;5007806;28;20569;-44
2021/05/14 13:48:04;;;;;;;7.47;6.80;;;;;;;;;;5008781;28;20173;-45
2021/05/14 13:50:29;;;;;;;7.43;6.93;;;;;;;;;;5009066;28;20205;-45
2021/05/14 13:52:54;;;;;;;8.53;7.90;;;;;;;;;;4999739;28;21079;-46
2021/05/14 13:55:19;;;;;;;7.95;7.45;;;;;;;;;;5006531;28;20213;-46
2021/05/14 13:57:44;;;;;;;7.93;7.43;;;;;;;;;;5008837;28;20394;-46
2021/05/14 14:00:10;;;;;;;8.68;7.88;;;;;;;;;;5008319;28;20230;-46
2021/05/14 14:02:35;;;;;;;9.13;8.40;;;;;;;;;;5008672;28;20535;-47
2021/05/14 14:05:00;;;;;;;8.17;7.57;;;;;;;;;;5008598;28;20182;-47
2021/05/14 14:07:26;;;;;;;8.63;7.63;;;;;;;;;;5008190;28;20177;-47
2021/05/14 14:09:51;;;;;;;8.10;7.50;;;;;;;;;;5008345;28;20236;-46
2021/05/14 14:12:16;;;;;;;8.70;8.00;;;;;;;;;;5008762;28;21019;-46
2021/05/14 14:14:41;;;;;;;9.23;8.40;;;;;;;;;;5008290;28;20649;-45
2021/05/14 14:17:06;;;;;;;9.88;9.00;;;;;;;;;;5008080;28;20176;-49
2021/05/14 14:19:32;;;;;;;7.80;7.20;;;;;;;;;;5008858;28;20172;-46
2021/05/14 14:21:57;;;;;;;7.30;6.57;;;;;;;;;;5008644;28;20536;-44
2021/05/14 14:24:22;;;;;;;8.20;7.00;;;;;;;;;;5008195;28;20319;-45
2021/05/14 14:26:48;;;;;;;8.70;7.80;;;;;;;;;;5008422;28;20176;-44
2021/05/14 14:29:13;;;;;;;9.30;8.60;;;;;;;;;;5008380;28;20193;-43
2021/05/14 14:31:38;;;;;;;8.90;8.20;;;;;;;;;;5008308;28;20533;-45